Time;durP1;ratioP1;P1;durP2;ratioP2;P2;SDS_P1;SDS_P2;PMS_P1;PMS_P2;Temp;Humidity;BMP_temperature;BMP_pressure;BME280_temperature;BME280_humidity;BME280_pressure;Samples;Min_cycle;Max_cycle;Signal;HPM_P1;HPM_P2
2022/08/24 00:00:03;;;;;;;;;7.75;6.75;;;;;24.66;56.88;101238.28;5078619;28;45601;-61
2022/08/24 00:02:28;;;;;;;;;4.75;4.75;;;;;24.66;57.27;101230.09;5072808;28;45408;-61
2022/08/24 00:04:54;;;;;;;;;3.00;3.00;;;;;24.66;57.14;101228.25;5074842;28;46187;-61
2022/08/24 00:07:20;;;;;;;;;5.00;4.00;;;;;24.66;56.99;101225.50;5071008;28;45319;-62
2022/08/24 00:09:47;;;;;;;;;4.25;4.25;;;;;24.65;57.30;101209.25;5079970;28;45223;-61
2022/08/24 00:12:14;;;;;;;;;6.00;4.00;;;;;24.73;56.47;101229.44;5072812;28;45430;-61
2022/08/24 00:14:40;;;;;;;;;2.50;2.50;;;;;24.74;57.11;101222.13;5079351;28;45505;-61
2022/08/24 00:17:06;;;;;;;;;4.25;3.50;;;;;24.79;56.93;101225.31;5076062;28;45433;-61
2022/08/24 00:19:33;;;;;;;;;3.25;3.25;;;;;24.82;56.71;101230.53;5080391;28;45346;-62
2022/08/24 00:21:59;;;;;;;;;4.00;4.00;;;;;24.81;57.40;101220.63;5075509;28;45249;-61
2022/08/24 00:24:25;;;;;;;;;6.50;5.00;;;;;24.84;56.96;101228.56;5079881;28;46977;-61
2022/08/24 00:26:52;;;;;;;;;4.00;4.00;;;;;24.82;57.21;101226.94;5079448;28;45405;-61
2022/08/24 00:29:18;;;;;;;;;4.50;3.00;;;;;24.83;56.71;101234.16;5080354;28;45248;-61
2022/08/24 00:31:43;;;;;;;;;3.00;3.00;;;;;24.82;56.58;101233.25;5076827;28;45450;-62
2022/08/24 00:34:09;;;;;;;;;3.00;3.00;;;;;24.82;57.09;101230.53;5079532;28;45458;-61
2022/08/24 00:36:35;;;;;;;;;5.00;3.00;;;;;24.80;56.74;101228.94;5075025;28;45377;-61
2022/08/24 00:39:01;;;;;;;;;4.50;4.00;;;;;24.80;57.23;101229.78;5069519;28;45394;-61
2022/08/24 00:41:27;;;;;;;;;3.50;3.50;;;;;24.81;57.14;101227.91;5079282;28;45486;-62
2022/08/24 00:43:57;;;;;;;;;1.75;1.75;;;;;24.79;56.86;101228.06;5070960;28;46297;-61
2022/08/24 00:46:28;;;;;;;;;2.25;2.25;;;;;24.79;57.14;101228.06;5069540;28;45469;-62
2022/08/24 00:49:07;;;;;;;;;2.25;2.25;;;;;24.77;57.34;101225.47;5073404;28;45502;-61
2022/08/24 00:51:39;;;;;;;;;2.75;2.75;;;;;24.76;57.50;101223.72;5076202;28;45657;-61
2022/08/24 00:54:11;;;;;;;;;2.00;1.25;;;;;24.76;57.56;101221.00;5079470;28;46383;-61
2022/08/24 00:56:42;;;;;;;;;3.00;2.00;;;;;24.74;56.98;101222.13;5068802;28;45476;-62
2022/08/24 00:59:17;;;;;;;;;3.00;3.00;;;;;24.73;57.45;101221.25;5079676;28;45252;-62
2022/08/24 01:01:43;;;;;;;;;2.25;2.25;;;;;24.73;57.49;101224.00;5074920;28;45599;-61
2022/08/24 01:04:15;;;;;;;;;1.25;1.25;;;;;24.74;57.85;101220.28;5078302;28;46996;-61
2022/08/24 01:06:42;;;;;;;;;2.00;1.25;;;;;24.75;57.92;101222.00;5074720;28;45354;-61
2022/08/24 01:09:07;;;;;;;;;5.25;3.50;;;;;24.73;57.92;101221.25;5079357;28;45378;-61
2022/08/24 01:11:33;;;;;;;;;2.00;2.00;;;;;24.71;57.70;101222.41;5074181;28;45298;-62
2022/08/24 01:13:59;;;;;;;;;3.75;3.75;;;;;24.70;57.29;101215.19;5078363;28;46082;-61
2022/08/24 01:19:25;;;;;;;;;2.00;2.00;;;;;24.73;57.39;101223.13;5074652;28;45279;-61
2022/08/24 01:22:22;;;;;;;;;3.00;3.00;;;;;24.72;57.76;101222.25;5064676;28;45170;-61
2022/08/24 01:24:48;;;;;;;;;3.00;3.00;;;;;24.72;57.44;101215.94;5067324;28;46773;-61
2022/08/24 01:27:14;;;;;;;;;2.00;2.00;;;;;24.71;58.06;101225.13;5079377;28;45298;-61
2022/08/24 01:29:42;;;;;;;;;5.25;3.00;;;;;24.67;57.80;101216.31;5068796;28;45355;-62
2022/08/24 01:32:08;;;;;;;;;3.25;3.25;;;;;24.68;57.94;101226.25;5067512;28;45491;-61
2022/08/24 01:34:35;;;;;;;;;1.00;1.00;;;;;24.66;58.57;101219.16;5078780;28;45492;-61
2022/08/24 01:37:01;;;;;;;;;5.00;2.00;;;;;24.63;57.63;101223.03;5077650;28;45599;-61
2022/08/24 01:39:44;;;;;;;;;2.00;2.00;;;;;24.63;57.51;101233.09;5078972;28;45350;-62
2022/08/24 01:42:10;;;;;;;;;1.50;1.50;;;;;24.60;58.04;101231.47;5065523;28;45431;-61
2022/08/24 01:44:37;;;;;;;;;1.00;1.00;;;;;24.57;57.87;101232.63;5075407;28;45262;-61
2022/08/24 01:47:05;;;;;;;;;2.00;2.00;;;;;24.52;57.89;101217.56;5065935;28;45174;-61
2022/08/24 01:49:34;;;;;;;;;2.25;2.25;;;;;24.57;57.56;101229.00;5077294;28;45464;-61
2022/08/24 01:51:59;;;;;;;;;1.25;1.25;;;;;24.55;58.11;101223.69;5071537;28;45149;-61
2022/08/24 01:54:26;;;;;;;;;2.75;2.75;;;;;24.53;58.14;101224.78;5082129;28;46327;-61
2022/08/24 01:56:51;;;;;;;;;2.00;2.00;;;;;24.44;58.17;101220.97;5073678;28;45419;-61
2022/08/24 01:59:18;;;;;;;;;2.50;2.50;;;;;24.46;57.90;101227.16;5081721;28;45307;-61
2022/08/24 02:01:48;;;;;;;;;4.00;3.50;;;;;24.41;58.10;101216.63;5069006;28;45474;-61
2022/08/24 02:04:14;;;;;;;;;3.00;3.00;;;;;24.44;57.98;101225.53;5081288;28;45988;-62
2022/08/24 02:06:40;;;;;;;;;3.00;2.00;;;;;24.40;58.44;101223.06;5079109;28;45228;-62
2022/08/24 02:09:06;;;;;;;;;3.50;2.00;;;;;24.42;58.40;101223.81;5076420;28;45282;-61
2022/08/24 02:11:32;;;;;;;;;2.50;2.50;;;;;24.37;58.06;101212.44;5079268;28;45794;-61
2022/08/24 02:13:58;;;;;;;;;2.75;2.75;;;;;24.39;58.26;101221.34;5082253;28;46175;-61
2022/08/24 02:16:24;;;;;;;;;3.00;3.00;;;;;24.37;58.07;101223.34;5080863;28;45440;-61
2022/08/24 02:18:49;;;;;;;;;1.00;1.00;;;;;24.37;58.06;101222.44;5082353;28;45253;-61
2022/08/24 02:21:15;;;;;;;;;3.00;3.00;;;;;24.33;58.11;101227.31;5078568;28;45483;-61
2022/08/24 02:23:41;;;;;;;;;5.00;3.00;;;;;24.34;58.08;101223.59;5081831;28;46235;-61
2022/08/24 02:26:09;;;;;;;;;3.00;2.50;;;;;24.31;58.10;101217.53;5081012;28;45307;-61
2022/08/24 02:28:35;;;;;;;;;2.00;2.00;;;;;24.33;58.38;101221.84;5081553;28;45303;-61
2022/08/24 02:31:04;;;;;;;;;1.25;1.25;;;;;24.31;57.99;101223.84;5070624;28;45493;-61
2022/08/24 02:33:31;;;;;;;;;2.25;2.25;;;;;24.29;58.30;101230.41;5069850;28;46075;-62
2022/08/24 02:35:56;;;;;;;;;3.75;3.00;;;;;24.25;58.71;101213.44;5074982;28;45626;-61
2022/08/24 02:38:22;;;;;;;;;2.00;2.00;;;;;24.23;58.61;101219.00;5082117;28;45323;-61
2022/08/24 02:40:47;;;;;;;;;2.00;2.00;;;;;24.23;58.61;101221.75;5075666;28;45405;-61
2022/08/24 02:43:13;;;;;;;;;1.00;1.00;;;;;24.22;58.40;101222.75;5077555;28;45854;-61
2022/08/24 02:45:41;;;;;;;;;2.75;2.75;;;;;24.22;58.39;101219.13;5076220;28;45482;-61
2022/08/24 02:48:07;;;;;;;;;3.00;3.00;;;;;24.20;59.05;101218.41;5081944;28;45477;-62
2022/08/24 02:50:36;;;;;;;;;2.00;1.25;;;;;24.22;58.34;101213.69;5080933;28;45328;-61
2022/08/24 02:53:01;;;;;;;;;2.00;2.00;;;;;24.22;59.05;101221.88;5081449;28;47183;-61
2022/08/24 02:55:27;;;;;;;;;1.75;1.75;;;;;24.21;59.30;101220.16;5076834;28;45362;-61
2022/08/24 02:57:52;;;;;;;;;1.25;1.25;;;;;24.20;58.57;101219.25;5079180;27;45403;-61
2022/08/24 03:00:20;;;;;;;;;2.50;2.50;;;;;24.18;58.99;101223.97;5068527;28;45612;-61
2022/08/24 03:02:45;;;;;;;;;1.50;1.50;;;;;24.13;59.20;101212.59;5073913;28;46270;-61
2022/08/24 03:05:11;;;;;;;;;2.50;2.50;;;;;24.11;59.02;101217.31;5069983;28;45419;-61
2022/08/24 03:07:36;;;;;;;;;3.00;2.00;;;;;24.09;58.42;101210.22;5079899;28;45299;-61
2022/08/24 03:10:04;;;;;;;;;2.00;2.00;;;;;24.09;58.51;101221.13;5080602;28;45371;-62
2022/08/24 03:12:29;;;;;;;;;2.00;2.00;;;;;24.03;58.86;101215.19;5073784;28;46410;-61
2022/08/24 03:14:54;;;;;;;;;2.00;2.00;;;;;24.03;59.01;101223.38;5079937;28;45314;-61
2022/08/24 03:17:20;;;;;;;;;2.00;2.00;;;;;24.03;58.78;101223.38;5075084;28;45406;-61
2022/08/24 03:19:45;;;;;;;;;1.75;1.75;;;;;24.04;59.29;101227.84;5073711;28;45745;-61
2022/08/24 03:22:12;;;;;;;;;1.00;1.00;;;;;24.03;59.35;101220.66;5068020;28;57870;-62
2022/08/24 03:24:37;;;;;;;;;1.75;1.75;;;;;24.03;58.94;101217.06;5062591;28;45437;-61
2022/08/24 03:27:03;;;;;;;;;0.75;0.75;;;;;24.03;59.20;101220.66;5078037;28;45382;-62
2022/08/24 03:29:29;;;;;;;;;4.00;2.00;;;;;23.97;59.09;101215.72;5081217;28;45389;-61
2022/08/24 03:31:56;;;;;;;;;3.00;3.00;;;;;23.99;59.50;101213.72;5074569;28;46603;-61
2022/08/24 03:34:21;;;;;;;;;2.00;1.50;;;;;23.99;59.78;101215.56;5080870;28;45418;-61
2022/08/24 03:36:46;;;;;;;;;2.00;2.00;;;;;23.99;59.44;101216.47;5069111;28;45245;-61
2022/08/24 03:39:13;;;;;;;;;3.00;3.00;;;;;23.98;59.53;101211.13;5066506;28;49744;-61
2022/08/24 03:41:39;;;;;;;;;2.00;2.00;;;;;23.95;59.46;101206.78;5069870;28;46375;-61
2022/08/24 03:44:04;;;;;;;;;1.75;1.75;;;;;23.91;59.52;101202.59;5078464;28;45276;-61
2022/08/24 03:46:35;;;;;;;;;1.75;1.75;;;;;23.92;59.97;101211.63;5051894;28;45336;-61
2022/08/24 03:49:03;;;;;;;;;3.50;3.50;;;;;23.93;59.60;101214.22;5079874;28;45473;-61
2022/08/24 03:51:28;;;;;;;;;2.50;2.50;;;;;23.81;60.11;101193.38;5079963;28;47270;-61
2022/08/24 03:53:54;;;;;;;;;3.50;3.50;;;;;23.89;60.02;101212.75;5075413;28;45343;-61
2022/08/24 03:56:20;;;;;;;;;4.25;3.25;;;;;23.89;60.28;101215.47;5075277;28;45580;-61
2022/08/24 03:58:46;;;;;;;;;3.00;3.00;;;;;23.84;60.02;101204.09;5079380;28;45349;-61
2022/08/24 04:01:12;;;;;;;;;2.00;2.00;;;;;23.85;60.46;101209.38;5073654;28;45373;-61
2022/08/24 04:03:39;;;;;;;;;2.00;2.00;;;;;23.84;60.12;101204.94;5079265;28;45486;-61
2022/08/24 04:06:06;;;;;;;;;4.00;4.00;;;;;23.83;60.24;101202.34;5076672;28;45287;-62
2022/08/24 04:08:32;;;;;;;;;5.75;3.75;;;;;23.80;60.04;101208.00;5078690;28;45519;-61
2022/08/24 04:10:58;;;;;;;;;4.25;3.00;;;;;23.82;60.07;101211.50;5080249;28;45949;-61
2022/08/24 04:13:24;;;;;;;;;4.00;4.00;;;;;23.80;60.76;101210.72;5075893;28;45314;-61
2022/08/24 04:15:51;;;;;;;;;5.50;5.00;;;;;23.78;60.67;101208.13;5077044;28;45515;-61
2022/08/24 04:18:17;;;;;;;;;4.00;4.00;;;;;23.77;60.39;101205.50;5080469;28;45248;-61
2022/08/24 04:20:43;;;;;;;;;4.00;3.75;;;;;23.74;60.61;101203.94;5078370;28;45425;-61
2022/08/24 04:23:10;;;;;;;;;4.00;3.00;;;;;23.74;60.30;101216.66;5080299;28;45386;-61
2022/08/24 04:25:45;;;;;;;;;3.50;3.50;;;;;23.72;60.57;101205.88;5077749;28;45293;-61
2022/08/24 04:28:13;;;;;;;;;4.00;4.00;;;;;23.64;60.25;101195.63;5080302;28;45265;-61
2022/08/24 04:30:43;;;;;;;;;4.00;4.00;;;;;23.71;60.86;101209.63;5075684;28;45788;-61
2022/08/24 04:33:10;;;;;;;;;3.25;3.25;;;;;23.69;60.76;101211.59;5068473;28;45437;-61
2022/08/24 04:35:42;;;;;;;;;4.75;4.50;;;;;23.67;60.64;101206.28;5078850;28;45418;-61
2022/08/24 04:38:07;;;;;;;;;4.25;4.00;;;;;23.66;60.81;101206.41;5079188;28;45395;-61
2022/08/24 04:40:34;;;;;;;;;5.75;4.50;;;;;23.63;61.00;101209.38;5079896;28;45312;-61
2022/08/24 04:43:00;;;;;;;;;4.25;4.25;;;;;23.57;60.77;101198.94;5068609;28;46200;-61
2022/08/24 04:45:27;;;;;;;;;5.00;5.00;;;;;23.61;60.72;101204.03;5071868;28;45238;-61
2022/08/24 04:47:52;;;;;;;;;4.00;4.00;;;;;23.59;60.82;101202.41;5079731;28;45504;-61
2022/08/24 04:50:17;;;;;;;;;4.00;4.00;;;;;23.58;61.05;101198.81;5079263;28;46341;-61
2022/08/24 04:52:43;;;;;;;;;5.00;5.00;;;;;23.58;61.09;101198.81;5075729;28;45245;-61
2022/08/24 04:55:08;;;;;;;;;4.00;4.00;;;;;23.56;61.11;101198.09;5076178;28;46264;-61
2022/08/24 04:57:34;;;;;;;;;4.25;4.25;;;;;23.55;61.11;101207.25;5071215;28;45565;-62
2022/08/24 04:59:59;;;;;;;;;5.75;4.75;;;;;23.53;61.15;101206.50;5079027;28;47285;-61
2022/08/24 05:02:25;;;;;;;;;7.00;6.00;;;;;23.52;61.23;101201.19;5070966;28;45515;-61
2022/08/24 05:04:50;;;;;;;;;2.50;2.50;;;;;23.51;61.40;101197.59;5072541;28;45335;-61
2022/08/24 05:07:17;;;;;;;;;4.00;4.00;;;;;23.51;61.24;101199.47;5075926;28;45233;-61
2022/08/24 05:09:43;;;;;;;;;4.00;4.00;;;;;23.50;61.31;101204.03;5068349;28;45367;-61
2022/08/24 05:12:09;;;;;;;;;5.00;5.00;;;;;23.49;61.67;101208.63;5077385;28;45421;-61
2022/08/24 05:14:34;;;;;;;;;6.50;6.00;;;;;23.41;61.48;101197.47;5071910;28;45183;-61
2022/08/24 05:16:59;;;;;;;;;6.00;5.00;;;;;23.47;61.48;101212.44;5078609;28;45481;-61
2022/08/24 05:19:25;;;;;;;;;1.75;1.75;;;;;23.39;61.76;101194.00;5079525;28;45293;-61
2022/08/24 05:21:50;;;;;;;;;3.75;3.75;;;;;23.45;61.53;101200.78;5080320;28;45330;-61
2022/08/24 05:24:16;;;;;;;;;4.50;4.00;;;;;23.45;61.54;101211.69;5083095;28;45664;-61
2022/08/24 05:26:41;;;;;;;;;4.75;4.00;;;;;23.44;61.81;101207.25;5078212;28;45237;-61
2022/08/24 05:29:06;;;;;;;;;4.00;4.00;;;;;23.43;61.38;101208.22;5074636;28;45281;-61
2022/08/24 05:31:32;;;;;;;;;4.75;4.75;;;;;23.44;61.88;101218.16;5072032;28;45420;-61
2022/08/24 05:33:59;;;;;;;;;5.00;5.00;;;;;23.43;61.66;101222.72;5082039;28;45363;-61
2022/08/24 05:36:30;;;;;;;;;4.00;4.00;;;;;23.42;61.77;101217.38;5081669;28;45473;-61
2022/08/24 05:38:59;;;;;;;;;5.00;4.00;;;;;23.42;61.78;101221.00;5075143;28;46308;-61
2022/08/24 05:41:25;;;;;;;;;4.50;4.50;;;;;23.40;61.51;101211.19;5082394;28;45444;-61
2022/08/24 05:43:51;;;;;;;;;4.75;4.75;;;;;23.39;61.12;101220.34;5074143;28;45280;-61
2022/08/24 05:46:17;;;;;;;;;3.75;3.75;;;;;23.36;61.32;101217.88;5075206;28;45379;-61
2022/08/24 05:48:42;;;;;;;;;4.50;3.50;;;;;23.35;61.52;101206.09;5082503;28;47015;-61
2022/08/24 05:51:09;;;;;;;;;5.00;4.50;;;;;23.38;61.86;101224.06;5082485;28;45292;-63
2022/08/24 05:53:35;;;;;;;;;4.00;4.00;;;;;23.38;61.41;101230.38;5080907;28;45585;-62
2022/08/24 05:56:10;;;;;;;;;3.25;3.25;;;;;23.35;61.32;101219.72;5079897;28;45260;-63
2022/08/24 05:58:37;;;;;;;;;5.00;5.00;;;;;23.36;61.36;101223.34;5082237;28;46232;-64
2022/08/24 06:01:07;;;;;;;;;5.75;4.25;;;;;23.37;61.45;101227.78;5082667;28;45491;-63
2022/08/24 06:03:33;;;;;;;;;4.25;4.25;;;;;23.31;61.28;101215.53;5082204;28;45398;-64
2022/08/24 06:06:01;;;;;;;;;5.00;5.00;;;;;23.38;61.86;101226.81;5074375;28;45411;-63
2022/08/24 06:08:26;;;;;;;;;6.75;6.00;;;;;23.39;62.05;101229.41;5076383;28;46212;-64
2022/08/24 06:10:52;;;;;;;;;4.50;4.50;;;;;23.37;61.34;101228.66;5075323;28;45297;-63
2022/08/24 06:13:17;;;;;;;;;4.50;4.50;;;;;23.40;61.53;101230.25;5081390;28;45512;-63
2022/08/24 06:15:42;;;;;;;;;3.00;3.00;;;;;23.38;60.77;101224.94;5082016;28;45472;-65
2022/08/24 06:18:08;;;;;;;;;5.00;5.00;;;;;23.40;60.89;101230.25;5082026;28;45269;-64
2022/08/24 06:20:39;;;;;;;;;4.00;3.25;;;;;23.41;61.61;101229.28;5056356;28;45770;-65
2022/08/24 06:23:04;;;;;;;;;3.50;3.00;;;;;23.41;62.00;101218.38;5079279;27;45385;-64
2022/08/24 06:28:14;;;;;;;;;2.75;2.75;;;;;23.37;61.24;101225.94;5080734;28;45316;-64
2022/08/24 06:30:41;;;;;;;;;6.00;4.25;;;;;23.42;61.41;101237.34;5076674;28;45193;-64
2022/08/24 06:33:08;;;;;;;;;3.00;3.00;;;;;23.40;61.10;101233.84;5062556;28;45267;-64
2022/08/24 06:35:33;;;;;;;;;7.00;5.00;;;;;23.40;61.39;101242.03;5080716;28;45243;-65
2022/08/24 06:37:59;;;;;;;;;4.00;4.00;;;;;23.43;61.65;101241.78;5074845;28;45300;-65
2022/08/24 06:40:25;;;;;;;;;4.50;3.25;;;;;23.41;61.90;101234.75;5066651;28;45250;-65
2022/08/24 06:42:50;;;;;;;;;3.25;3.25;;;;;23.44;61.73;101235.34;5073882;27;46862;-64
2022/08/24 06:45:16;;;;;;;;;6.00;6.00;;;;;23.45;61.41;101233.50;5080183;28;45446;-63
2022/08/24 06:47:41;;;;;;;;;5.50;5.00;;;;;23.46;61.63;101227.06;5080127;28;45965;-63
2022/08/24 06:50:07;;;;;;;;;4.25;3.50;;;;;23.46;61.36;101237.97;5078863;28;45284;-63
2022/08/24 06:52:38;;;;;;;;;4.00;4.00;;;;;23.47;61.66;101234.22;5081659;28;45248;-63
2022/08/24 06:55:04;;;;;;;;;3.00;3.00;;;;;23.48;61.79;101231.38;5079587;28;45534;-63
2022/08/24 06:57:30;;;;;;;;;3.50;3.50;;;;;23.50;61.69;101231.25;5062384;28;46025;-63
2022/08/24 06:59:55;;;;;;;;;4.50;4.50;;;;;23.49;61.45;101224.97;5080998;28;45352;-63
2022/08/24 07:02:21;;;;;;;;;4.00;4.00;;;;;23.53;61.25;101225.56;5073023;27;45398;-63
2022/08/24 07:04:46;;;;;;;;;4.25;4.25;;;;;23.55;61.63;101229.03;5079713;28;45680;-63
2022/08/24 07:07:12;;;;;;;;;4.00;4.00;;;;;23.53;61.82;101217.41;5079968;27;45373;-63
2022/08/24 07:09:38;;;;;;;;;7.00;5.50;;;;;23.59;60.97;101227.81;5080713;28;45416;-63
2022/08/24 07:12:03;;;;;;;;;5.25;4.25;;;;;23.60;61.71;101225.97;5077827;27;45454;-63
2022/08/24 07:14:29;;;;;;;;;6.50;5.50;;;;;23.62;61.43;101222.13;5075569;28;45295;-63
2022/08/24 07:16:55;;;;;;;;;4.25;4.25;;;;;23.62;61.60;101219.41;5076825;27;45463;-63
2022/08/24 07:19:20;;;;;;;;;5.50;5.50;;;;;23.65;61.59;101226.44;5059928;28;45348;-63
2022/08/24 07:21:46;;;;;;;;;2.25;2.25;;;;;23.68;61.47;101223.50;5078315;28;45224;-63
2022/08/24 07:24:11;;;;;;;;;3.25;3.25;;;;;23.72;60.91;101233.13;5080692;28;45546;-63
2022/08/24 07:26:37;;;;;;;;;5.00;3.00;;;;;23.77;61.07;101235.50;5075103;28;45440;-62
2022/08/24 07:29:08;;;;;;;;;5.00;4.75;;;;;23.80;60.35;101236.13;5080278;28;45410;-63
2022/08/24 07:31:35;;;;;;;;;4.00;4.00;;;;;23.84;60.45;101234.94;5080324;28;45354;-63
2022/08/24 07:34:02;;;;;;;;;4.00;3.50;;;;;23.86;59.98;101241.13;5078379;28;45505;-63
2022/08/24 07:36:28;;;;;;;;;3.75;3.50;;;;;23.93;60.10;101249.66;5075025;28;45426;-63
2022/08/24 07:38:53;;;;;;;;;2.50;2.50;;;;;23.97;59.84;101242.09;5068741;28;45737;-63
2022/08/24 07:41:21;;;;;;;;;3.00;3.00;;;;;24.01;60.27;101247.19;5078974;28;45756;-63
2022/08/24 07:43:48;;;;;;;;;3.00;3.00;;;;;24.04;60.08;101246.94;5080233;28;45276;-64
2022/08/24 07:46:13;;;;;;;;;4.00;4.00;;;;;24.11;60.30;101249.19;5079453;28;45753;-65
2022/08/24 07:48:39;;;;;;;;;4.75;4.50;;;;;24.16;60.08;101253.25;5080911;28;45357;-64
2022/08/24 07:51:09;;;;;;;;;3.75;3.25;;;;;24.20;59.70;101245.69;5075570;28;45484;-64
2022/08/24 07:53:35;;;;;;;;;3.50;3.50;;;;;24.23;59.89;101240.84;5078094;28;45493;-63
2022/08/24 07:56:01;;;;;;;;;4.00;4.00;;;;;24.32;59.27;101258.28;5079831;28;45460;-64
2022/08/24 07:58:26;;;;;;;;;5.00;4.50;;;;;24.35;59.09;101251.72;5075414;28;45286;-64
2022/08/24 08:00:52;;;;;;;;;5.00;3.25;;;;;24.44;58.83;101263.75;5078824;28;45808;-64
2022/08/24 08:03:17;;;;;;;;;3.00;3.00;;;;;24.49;59.02;101262.38;5072545;28;45445;-64
2022/08/24 08:05:43;;;;;;;;;3.00;3.00;;;;;24.55;58.50;101261.03;5078952;28;45421;-63
2022/08/24 08:08:08;;;;;;;;;4.50;3.25;;;;;24.57;57.85;101262.66;5079428;28;45478;-63
2022/08/24 08:10:35;;;;;;;;;2.00;2.00;;;;;24.67;57.78;101270.03;5079459;28;45474;-65
2022/08/24 08:13:04;;;;;;;;;4.25;4.25;;;;;24.73;58.36;101277.72;5073176;28;45490;-65
2022/08/24 08:15:29;;;;;;;;;3.00;2.25;;;;;24.81;58.01;101275.22;5078074;28;46055;-65
2022/08/24 08:17:55;;;;;;;;;2.25;2.25;;;;;24.86;57.05;101272.97;5079176;28;45747;-65
2022/08/24 08:20:20;;;;;;;;;2.00;2.00;;;;;24.87;57.05;101265.63;5078480;28;45531;-66
2022/08/24 08:25:30;;;;;;;;;2.00;2.00;;;;;24.99;56.74;101269.19;5077976;28;45733;-66
2022/08/24 08:27:56;;;;;;;;;5.00;2.50;;;;;25.06;56.79;101278.56;5078995;28;45425;-66
2022/08/24 08:30:21;;;;;;;;;1.75;1.75;;;;;25.12;57.12;101278.91;5070948;28;45509;-66
2022/08/24 08:32:47;;;;;;;;;0.50;0.50;;;;;25.13;55.50;101269.75;5071349;28;45500;-66
2022/08/24 08:35:13;;;;;;;;;3.25;3.25;;;;;25.26;55.39;101280.53;5078300;28;45568;-68
2022/08/24 08:37:38;;;;;;;;;1.25;1.25;;;;;25.31;56.19;101274.66;5076301;28;45662;-66
2022/08/24 08:40:12;;;;;;;;;2.00;2.00;;;;;25.38;55.09;101267.66;5075348;28;45430;-66
2022/08/24 08:42:55;;;;;;;;;4.00;2.00;;;;;25.42;54.29;101266.38;5078994;28;45677;-66
2022/08/24 08:45:42;;;;;;;;;3.25;3.25;;;;;25.45;54.76;101266.13;5078292;28;46235;-65
2022/08/24 08:48:31;;;;;;;;;1.25;1.25;;;;;25.51;54.77;101270.19;5071043;28;45465;-66
2022/08/24 08:51:38;;;;;;;;;2.00;2.00;;;;;25.60;55.03;101265.78;5074517;28;45416;-66
2022/08/24 08:54:36;;;;;;;;;3.00;3.00;;;;;25.66;54.45;101266.09;5077531;28;45902;-66
2022/08/24 08:57:21;;;;;;;;;1.75;1.50;;;;;25.74;54.11;101267.28;5065768;28;45461;-66
2022/08/24 09:00:08;;;;;;;;;2.00;2.00;;;;;25.80;54.01;101256.66;5074816;28;45327;-66
2022/08/24 09:03:02;;;;;;;;;2.75;2.75;;;;;25.86;53.81;101267.06;5078344;28;45560;-66
2022/08/24 09:05:36;;;;;;;;;2.75;1.00;;;;;25.93;54.39;101261.03;5074696;28;45437;-66
2022/08/24 09:08:13;;;;;;;;;2.00;2.00;;;;;25.98;52.83;101262.41;5075905;27;45508;-65
2022/08/24 09:10:48;;;;;;;;;2.75;2.25;;;;;26.08;53.49;101265.19;5081955;28;45375;-66
2022/08/24 09:13:42;;;;;;;;;1.25;1.25;;;;;26.16;52.80;101253.53;5082051;28;45444;-66
2022/08/24 09:16:38;;;;;;;;;6.00;6.00;;;;;26.21;52.72;101259.44;5081116;28;46813;-66
2022/08/24 09:19:22;;;;;;;;;2.50;2.50;;;;;26.26;53.19;101262.63;5069928;28;47041;-66
2022/08/24 09:22:08;;;;;;;;;3.00;3.00;;;;;26.29;52.85;101258.75;5074160;27;45490;-66
2022/08/24 09:24:51;;;;;;;;;2.00;2.00;;;;;26.36;53.40;101263.56;5077483;27;45499;-65
2022/08/24 09:27:45;;;;;;;;;1.50;1.50;;;;;26.35;52.03;101255.47;5077933;28;45513;-66
2022/08/24 09:30:22;;;;;;;;;0.50;0.50;;;;;26.43;51.25;101250.16;5072096;28;45528;-65
2022/08/24 09:32:57;;;;;;;;;1.25;1.25;;;;;26.51;51.06;101257.66;5077052;28;45429;-65
2022/08/24 09:35:34;;;;;;;;;0.50;0.50;;;;;26.53;50.64;101262.00;5077814;28;45445;-65
2022/08/24 09:38:25;;;;;;;;;1.75;1.75;;;;;26.56;50.84;101266.31;5077172;28;45450;-65
2022/08/24 09:41:11;;;;;;;;;1.00;1.00;;;;;26.59;50.58;101268.78;5067787;27;47046;-65
2022/08/24 09:43:55;;;;;;;;;1.00;1.00;;;;;26.59;50.62;101269.63;5073932;27;45758;-66
2022/08/24 09:46:42;;;;;;;;;1.00;1.00;;;;;26.60;50.17;101259.56;5070355;28;45457;-66
2022/08/24 09:49:26;;;;;;;;;1.00;1.00;;;;;26.72;50.48;101263.91;5075677;28;45386;-66
2022/08/24 09:52:17;;;;;;;;;1.75;1.00;;;;;26.76;49.83;101262.66;5076894;28;46200;-65
2022/08/24 09:55:07;;;;;;;;;1.50;1.50;;;;;26.83;50.19;101262.94;5060682;28;45337;-67
2022/08/24 09:58:17;;;;;;;;;0.25;0.25;;;;;26.96;50.02;101260.78;5080036;28;45424;-66
2022/08/24 10:00:53;;;;;;;;;1.00;1.00;;;;;27.01;49.98;101257.59;5076701;27;45387;-65
2022/08/24 10:03:37;;;;;;;;;0.25;0.25;;;;;27.12;49.67;101270.28;5068194;28;46395;-66
2022/08/24 10:06:27;;;;;;;;;1.00;1.00;;;;;27.15;48.53;101250.81;5066041;27;45864;-65
2022/08/24 10:09:09;;;;;;;;;1.00;1.00;;;;;27.18;48.64;101253.25;5077388;28;45478;-65
2022/08/24 10:11:47;;;;;;;;;1.00;0.50;;;;;27.18;49.02;101248.66;5078779;28;45373;-65
2022/08/24 10:14:17;;;;;;;;;5.25;4.75;;;;;27.20;47.79;101253.09;5079007;28;45422;-65
2022/08/24 10:16:53;;;;;;;;;0.25;0.25;;;;;27.20;48.11;101250.34;5080899;27;45467;-65
2022/08/24 10:20:03;;;;;;;;;1.00;1.00;;;;;27.21;48.50;101239.25;5063844;28;45332;-65
2022/08/24 10:22:54;;;;;;;;;0.25;0.25;;;;;27.28;47.88;101237.69;5050971;28;45458;-65
2022/08/24 10:25:32;;;;;;;;;2.25;2.25;;;;;27.28;47.16;101229.47;5081578;28;46265;-65
2022/08/24 10:28:34;;;;;;;;;0.25;0.25;;;;;27.33;48.22;101235.38;5080799;27;45524;-65
2022/08/24 10:30:59;;;;;;;;;1.00;1.00;;;;;27.39;48.17;101231.19;5070672;28;45384;-65
2022/08/24 10:33:29;;;;;;;;;0.25;0.25;;;;;27.44;48.29;101228.00;5079582;28;45550;-65
2022/08/24 10:36:07;;;;;;;;;2.00;2.00;;;;;27.47;47.26;101228.56;5079902;28;46163;-65
2022/08/24 10:39:40;;;;;;;;;1.00;1.00;;;;;27.46;48.09;101223.22;5080081;27;45607;-65
2022/08/24 10:45:56;;;;;;;;;1.00;1.00;;;;;27.54;47.33;101223.34;5072889;28;45836;-65
2022/08/24 10:48:30;;;;;;;;;0.50;0.50;;;;;27.58;47.86;101221.19;5067701;28;46427;-65
2022/08/24 10:51:18;;;;;;;;;0.75;0.50;;;;;27.63;47.75;101227.97;5079672;28;45741;-65
2022/08/24 10:53:48;;;;;;;;;1.00;1.00;;;;;27.68;47.60;101214.66;5081055;28;45541;-67
2022/08/24 10:56:40;;;;;;;;;1.75;1.25;;;;;27.81;46.58;101221.66;5081035;28;45373;-67
2022/08/24 10:59:14;;;;;;;;;0.50;0.50;;;;;27.86;46.88;101219.34;5080680;28;45402;-67
2022/08/24 11:02:00;;;;;;;;;1.75;1.75;;;;;27.87;47.24;101221.06;5079654;28;46709;-67
2022/08/24 11:04:29;;;;;;;;;2.00;2.00;;;;;27.87;47.68;101216.44;5067043;28;45336;-66
2022/08/24 11:07:13;;;;;;;;;1.50;1.50;;;;;27.98;47.08;101212.66;5080743;28;45241;-67
2022/08/24 11:09:52;;;;;;;;;2.00;2.00;;;;;27.99;46.08;101214.41;5079765;28;45259;-66
2022/08/24 11:12:32;;;;;;;;;2.00;2.00;;;;;28.03;47.38;101201.22;5077889;28;45821;-67
2022/08/24 11:15:17;;;;;;;;;1.00;1.00;;;;;28.16;46.84;101211.84;5080671;28;45427;-67
2022/08/24 11:18:00;;;;;;;;;1.50;1.50;;;;;28.23;45.92;101199.25;5078374;28;45317;-66
2022/08/24 11:20:33;;;;;;;;;0.50;0.50;;;;;28.25;46.00;101197.19;5079178;28;45434;-67
2022/08/24 11:23:13;;;;;;;;;2.00;2.00;;;;;28.26;45.98;101196.19;5081196;28;45588;-67
2022/08/24 11:25:58;;;;;;;;;2.25;2.25;;;;;28.23;46.36;101185.50;5081198;28;45260;-67
2022/08/24 11:29:00;;;;;;;;;2.00;1.75;;;;;28.26;45.53;101190.69;5081199;28;45379;-67
2022/08/24 11:31:33;;;;;;;;;1.50;1.50;;;;;28.24;45.07;101184.50;5055450;28;46523;-67
2022/08/24 11:34:08;;;;;;;;;1.50;1.50;;;;;28.26;45.43;101177.84;5081006;28;45425;-67
2022/08/24 11:36:37;;;;;;;;;1.00;1.00;;;;;28.32;45.95;101181.84;5080024;28;45318;-69
2022/08/24 11:39:24;;;;;;;;;1.00;1.00;;;;;28.33;45.10;101166.25;5074436;27;45374;-66
2022/08/24 11:42:28;;;;;;;;;2.00;2.00;;;;;28.35;45.14;101176.06;5074717;28;46152;-66
2022/08/24 11:44:56;;;;;;;;;1.00;1.00;;;;;28.39;45.29;101174.72;5069953;27;45388;-66
2022/08/24 11:47:30;;;;;;;;;3.00;2.00;;;;;28.46;45.18;101172.22;5077247;28;45436;-66
2022/08/24 11:50:20;;;;;;;;;1.25;1.25;;;;;28.50;44.66;101172.75;5071490;27;45474;-66
2022/08/24 11:53:07;;;;;;;;;0.50;0.25;;;;;28.54;44.35;101169.53;5072453;27;46636;-66